CFG49F LEMD-EDDH
Flight info
| Callsign | CFG49F |
|---|---|
| Flight time | N/A |
| Altitude | 38000 |
| Route | PINAR N870 SEGRE N871 YAKXU/N0463F400 N871 TOPTU DCT TOU DCT GAI DCT MEN DCT NINUN DCT LATAM DCT ETREK DCT LTP/N0463F340 DCT SOPLO DCT OMASI DCT KINNI/N0462F400 DCT SOSAL DCT KORED DCT BERSU DCT DITON/N0459F390 DCT LOKTA DCT TEDGO DCT HAREM DCT LOHRE DCT ELNAT/N0462F400 P605 NOLGO NOLGO3P |
| Aircraft | A339/H-SADE1E2E3GHIJ3J5M1P2RWXY/LB2D1 |
Departure
| Time | N/A |
|---|---|
| Airport | Adolfo Suárez Madrid–Barajas Airport (LEMD) |
Arrival
| Time | 2026-05-03 20:29 |
|---|---|
| Airport | Hamburg Helmut Schmidt Airport (EDDH) |
| Time | Latitude | Longitude | Altitude | Speed | Heading |
|---|---|---|---|---|---|
| 2026-05-03 20:15 | 53.15805 | 10.13023 | 10866 ft | 376 kts | 358° |
| 2026-05-03 20:15 | 53.18414 | 10.13112 | 10455 ft | 374 kts | 358° |
| 2026-05-03 20:15 | 53.20972 | 10.13200 | 10261 ft | 358 kts | 358° |
| 2026-05-03 20:15 | 53.23374 | 10.13292 | 10025 ft | 333 kts | 358° |
| 2026-05-03 20:16 | 53.25593 | 10.13376 | 9648 ft | 315 kts | 357° |
| 2026-05-03 20:16 | 53.27760 | 10.13446 | 8943 ft | 309 kts | 357° |
| 2026-05-03 20:16 | 53.29898 | 10.13510 | 8188 ft | 305 kts | 357° |
| 2026-05-03 20:16 | 53.32007 | 10.13576 | 7473 ft | 301 kts | 357° |
| 2026-05-03 20:17 | 53.34091 | 10.13643 | 6870 ft | 298 kts | 357° |
| 2026-05-03 20:17 | 53.35931 | 10.13705 | 6364 ft | 296 kts | 357° |
| 2026-05-03 20:17 | 53.37980 | 10.13776 | 5754 ft | 293 kts | 357° |
| 2026-05-03 20:17 | 53.40002 | 10.13816 | 5257 ft | 287 kts | 354° |
| 2026-05-03 20:18 | 53.41989 | 10.13560 | 5064 ft | 290 kts | 351° |
| 2026-05-03 20:18 | 53.43987 | 10.13283 | 5010 ft | 285 kts | 351° |
| 2026-05-03 20:18 | 53.45966 | 10.13024 | 4987 ft | 286 kts | 351° |
| 2026-05-03 20:18 | 53.47923 | 10.12774 | 4990 ft | 286 kts | 351° |
| 2026-05-03 20:19 | 53.49916 | 10.12523 | 4989 ft | 288 kts | 351° |
| 2026-05-03 20:19 | 53.51900 | 10.12274 | 4747 ft | 284 kts | 351° |
| 2026-05-03 20:19 | 53.53846 | 10.12029 | 4426 ft | 273 kts | 351° |
| 2026-05-03 20:19 | 53.55668 | 10.11814 | 4236 ft | 253 kts | 351° |
| 2026-05-03 20:20 | 53.57392 | 10.11656 | 3747 ft | 248 kts | 356° |
| 2026-05-03 20:20 | 53.59072 | 10.12392 | 3225 ft | 253 kts | 26° |
| 2026-05-03 20:20 | 53.60411 | 10.14312 | 3064 ft | 261 kts | 49° |
| 2026-05-03 20:20 | 53.61474 | 10.16796 | 2992 ft | 258 kts | 56° |
| 2026-05-03 20:21 | 53.62452 | 10.19289 | 2975 ft | 254 kts | 55° |
| 2026-05-03 20:21 | 53.63473 | 10.21692 | 2981 ft | 258 kts | 53° |
| 2026-05-03 20:21 | 53.64582 | 10.24081 | 3006 ft | 258 kts | 50° |
| 2026-05-03 20:21 | 53.65716 | 10.26406 | 2992 ft | 255 kts | 49° |
| 2026-05-03 20:22 | 53.66869 | 10.28713 | 2970 ft | 259 kts | 49° |
| 2026-05-03 20:22 | 53.68136 | 10.30805 | 2975 ft | 252 kts | 30° |
| 2026-05-03 20:22 | 53.69657 | 10.31802 | 2992 ft | 216 kts | 1° |
| 2026-05-03 20:22 | 53.70979 | 10.31509 | 2969 ft | 178 kts | 326° |
| 2026-05-03 20:23 | 53.71973 | 10.30329 | 2959 ft | 170 kts | 306° |
| 2026-05-03 20:23 | 53.72657 | 10.28796 | 2952 ft | 159 kts | 291° |
| 2026-05-03 20:23 | 53.73067 | 10.27108 | 2983 ft | 161 kts | 279° |
| 2026-05-03 20:23 | 53.73216 | 10.25273 | 2977 ft | 156 kts | 265° |
| 2026-05-03 20:24 | 53.73187 | 10.23470 | 2977 ft | 154 kts | 264° |
| 2026-05-03 20:24 | 53.73186 | 10.21640 | 2979 ft | 156 kts | 266° |
| 2026-05-03 20:24 | 53.73140 | 10.19821 | 2973 ft | 154 kts | 254° |
| 2026-05-03 20:24 | 53.72649 | 10.18248 | 2852 ft | 154 kts | 233° |
| 2026-05-03 20:25 | 53.71931 | 10.16900 | 2614 ft | 154 kts | 228° |
| 2026-05-03 20:25 | 53.71270 | 10.15559 | 2427 ft | 142 kts | 234° |
| 2026-05-03 20:25 | 53.70653 | 10.14288 | 2235 ft | 142 kts | 231° |
| 2026-05-03 20:25 | 53.70018 | 10.13015 | 2048 ft | 140 kts | 232° |
| 2026-05-03 20:26 | 53.69395 | 10.11725 | 1849 ft | 142 kts | 232° |
| 2026-05-03 20:26 | 53.68749 | 10.10431 | 1662 ft | 147 kts | 232° |
| 2026-05-03 20:26 | 53.68126 | 10.09152 | 1466 ft | 139 kts | 232° |
| 2026-05-03 20:26 | 53.67498 | 10.07873 | 1272 ft | 140 kts | 232° |
| 2026-05-03 20:27 | 53.66894 | 10.06656 | 1091 ft | 136 kts | 233° |
| 2026-05-03 20:27 | 53.66296 | 10.05429 | 902 ft | 130 kts | 233° |
| 2026-05-03 20:27 | 53.65732 | 10.04274 | 746 ft | 135 kts | 232° |
| 2026-05-03 20:27 | 53.65148 | 10.03097 | 478 ft | 127 kts | 232° |
| 2026-05-03 20:28 | 53.64531 | 10.01854 | 335 ft | 149 kts | 232° |
| 2026-05-03 20:28 | 53.63901 | 10.00556 | 146 ft | 137 kts | 230° |
| 2026-05-03 20:28 | 53.63334 | 9.99415 | 53 ft | 113 kts | 230° |
| 2026-05-03 20:28 | 53.62946 | 9.98640 | 49 ft | 69 kts | 230° |
| 2026-05-03 20:29 | 53.62655 | 9.98051 | 50 ft | 67 kts | 230° |
| 2026-05-03 20:29 | 53.62351 | 9.97441 | 51 ft | 63 kts | 230° |
| 2026-05-03 20:29 | 53.62095 | 9.96923 | 49 ft | 53 kts | 230° |
| 2026-05-03 20:29 | 53.61883 | 9.96499 | 55 ft | 39 kts | 225° |
| 2026-05-03 20:30 | 53.61745 | 9.96420 | 54 ft | 21 kts | 184° |
| 2026-05-03 20:30 | 53.61720 | 9.96422 | 57 ft | 0 kts | 174° |
| 2026-05-03 20:30 | 53.61709 | 9.96431 | 49 ft | 7 kts | 160° |
| 2026-05-03 20:31 | 53.61676 | 9.96545 | 52 ft | 14 kts | 82° |
| 2026-05-03 20:31 | 53.61732 | 9.96692 | 50 ft | 16 kts | 52° |
| 2026-05-03 20:31 | 53.61809 | 9.96848 | 51 ft | 19 kts | 50° |
| 2026-05-03 20:31 | 53.61903 | 9.97035 | 51 ft | 22 kts | 50° |
| 2026-05-03 20:32 | 53.62006 | 9.97243 | 51 ft | 24 kts | 50° |
| 2026-05-03 20:32 | 53.62116 | 9.97465 | 50 ft | 26 kts | 50° |
| 2026-05-03 20:32 | 53.62234 | 9.97701 | 49 ft | 27 kts | 50° |
| 2026-05-03 20:32 | 53.62358 | 9.97950 | 51 ft | 28 kts | 50° |
| 2026-05-03 20:33 | 53.62501 | 9.98190 | 49 ft | 29 kts | 41° |
| 2026-05-03 20:33 | 53.62638 | 9.98453 | 49 ft | 31 kts | 50° |
| 2026-05-03 20:33 | 53.62777 | 9.98733 | 56 ft | 32 kts | 50° |
| 2026-05-03 20:33 | 53.62917 | 9.99016 | 49 ft | 27 kts | 50° |
| 2026-05-03 20:34 | 53.63037 | 9.99261 | 50 ft | 28 kts | 52° |
| 2026-05-03 20:34 | 53.63153 | 9.99532 | 50 ft | 29 kts | 53° |
| 2026-05-03 20:34 | 53.63292 | 9.99791 | 49 ft | 30 kts | 47° |
| 2026-05-03 20:34 | 53.63412 | 10.00040 | 50 ft | 8 kts | 58° |
| 2026-05-03 20:35 | 53.63416 | 10.00130 | 55 ft | 9 kts | 98° |
| 2026-05-03 20:35 | 53.63371 | 10.00189 | 52 ft | 9 kts | 162° |
| 2026-05-03 20:35 | 53.63305 | 10.00202 | 53 ft | 10 kts | 174° |
| 2026-05-03 20:35 | 53.63269 | 10.00261 | 51 ft | 4 kts | 86° |
| 2026-05-03 20:36 | 53.63278 | 10.00322 | 55 ft | 6 kts | 83° |
| 2026-05-03 20:36 | 53.63281 | 10.00364 | 57 ft | 2 kts | 84° |